createdAt,value
2018-08-22T00:01:11.570Z,19.95
2018-08-22T00:03:49.560Z,19.92
2018-08-22T00:06:26.248Z,19.88
2018-08-22T00:09:03.811Z,19.86
2018-08-22T00:11:41.615Z,19.84
2018-08-22T00:14:18.658Z,19.82
2018-08-22T00:16:55.624Z,19.78
2018-08-22T00:19:33.574Z,19.75
2018-08-22T00:22:10.251Z,19.73
2018-08-22T00:24:46.717Z,19.69
2018-08-22T00:27:22.839Z,19.66
2018-08-22T00:30:00.075Z,19.63
2018-08-22T00:32:38.066Z,19.60
2018-08-22T00:35:14.774Z,19.56
2018-08-22T00:37:51.384Z,19.53
2018-08-22T00:40:26.352Z,19.52
2018-08-22T00:43:03.142Z,19.48
2018-08-22T00:45:39.539Z,19.46
2018-08-22T00:48:16.495Z,19.43
2018-08-22T00:50:53.323Z,19.39
2018-08-22T00:53:30.706Z,19.37
2018-08-22T00:56:08.835Z,19.34
2018-08-22T00:58:38.494Z,19.30
2018-08-22T01:01:08.353Z,19.27
2018-08-22T01:03:38.306Z,19.25
2018-08-22T01:06:08.050Z,19.23
2018-08-22T01:08:38.046Z,19.21
2018-08-22T01:11:07.861Z,19.20
2018-08-22T01:13:37.737Z,19.18
2018-08-22T01:16:07.786Z,19.16
2018-08-22T01:18:37.479Z,19.16
2018-08-22T01:21:08.202Z,19.14
2018-08-22T01:23:38.414Z,19.13
2018-08-22T01:26:08.167Z,19.11
2018-08-22T01:28:38.446Z,19.08
2018-08-22T01:31:08.161Z,19.05
2018-08-22T01:33:38.432Z,19.04
2018-08-22T01:36:08.245Z,19.03
2018-08-22T01:38:37.920Z,19.04
2018-08-22T01:41:07.921Z,19.03
2018-08-22T01:43:37.854Z,19.03
2018-08-22T01:46:07.512Z,19.04
2018-08-22T01:48:37.337Z,19.03
2018-08-22T01:51:07.162Z,19.04
2018-08-22T01:53:37.031Z,19.05
2018-08-22T01:56:06.957Z,19.07
2018-08-22T01:58:36.669Z,19.09
2018-08-22T02:01:06.392Z,19.12
2018-08-22T02:03:36.243Z,19.14
2018-08-22T02:06:06.575Z,19.14
2018-08-22T02:08:36.412Z,19.15
2018-08-22T02:11:06.847Z,19.14
2018-08-22T02:13:36.519Z,19.13
2018-08-22T02:16:06.679Z,19.13
2018-08-22T02:18:36.542Z,19.12
2018-08-22T02:21:06.960Z,19.10
2018-08-22T02:23:36.883Z,19.07
2018-08-22T02:26:06.730Z,19.02
2018-08-22T02:28:36.685Z,18.96
2018-08-22T02:31:06.915Z,18.92
2018-08-22T02:33:36.800Z,18.87
2018-08-22T02:36:06.572Z,18.82
2018-08-22T02:38:36.496Z,18.77
2018-08-22T02:41:06.726Z,18.74
2018-08-22T02:43:36.552Z,18.69
2018-08-22T02:46:07.027Z,18.66
2018-08-22T02:48:41.950Z,18.64
2018-08-22T02:51:11.742Z,18.60
2018-08-22T02:53:41.577Z,18.58
2018-08-22T02:56:11.661Z,18.49
2018-08-22T02:58:41.391Z,18.51
2018-08-22T03:01:11.289Z,18.50
2018-08-22T03:03:41.167Z,18.47
2018-08-22T03:06:10.910Z,18.43
2018-08-22T03:08:40.704Z,18.40
2018-08-22T03:11:10.680Z,18.38
2018-08-22T03:13:40.394Z,18.37
2018-08-22T03:16:10.365Z,18.34
2018-08-22T03:18:40.088Z,18.31
2018-08-22T03:21:09.882Z,18.29
2018-08-22T03:23:39.550Z,18.28
2018-08-22T03:26:09.349Z,18.26
2018-08-22T03:28:40.161Z,18.24
2018-08-22T03:31:10.044Z,18.23
2018-08-22T03:33:39.823Z,18.20
2018-08-22T03:36:09.918Z,18.18
2018-08-22T03:38:39.782Z,18.17
2018-08-22T03:41:09.708Z,18.15
2018-08-22T03:43:39.638Z,18.12
2018-08-22T03:46:09.603Z,18.09
2018-08-22T03:48:39.505Z,18.08
2018-08-22T03:51:09.459Z,18.06
2018-08-22T03:53:45.706Z,18.04
2018-08-22T03:56:21.170Z,18.01
2018-08-22T03:58:50.929Z,17.99
2018-08-22T04:01:20.771Z,17.98
2018-08-22T04:03:50.418Z,17.96
2018-08-22T04:06:20.231Z,17.94
2018-08-22T04:08:50.439Z,17.93
2018-08-22T04:11:20.282Z,17.91
2018-08-22T04:13:50.066Z,17.90
2018-08-22T04:16:22.048Z,17.90
2018-08-22T04:18:52.057Z,17.91
2018-08-22T04:21:21.693Z,17.90
2018-08-22T04:23:52.696Z,17.89
2018-08-22T04:26:22.535Z,17.88
2018-08-22T04:28:52.409Z,17.88
2018-08-22T04:31:22.277Z,17.88
2018-08-22T04:33:52.532Z,17.88
2018-08-22T04:36:22.479Z,17.89
2018-08-22T04:38:52.329Z,17.89
2018-08-22T04:41:22.283Z,17.90
2018-08-22T04:43:52.132Z,17.92
2018-08-22T04:46:21.987Z,17.93
2018-08-22T04:48:51.793Z,17.96
2018-08-22T04:51:21.611Z,17.98
2018-08-22T04:53:51.623Z,18.01
2018-08-22T04:56:21.337Z,18.04
2018-08-22T04:58:51.143Z,18.07
2018-08-22T05:01:20.969Z,18.10
2018-08-22T05:03:50.866Z,18.15
2018-08-22T05:06:20.734Z,18.19
2018-08-22T05:08:50.593Z,18.23
2018-08-22T05:11:20.421Z,18.27
2018-08-22T05:13:50.378Z,18.32
2018-08-22T05:16:20.228Z,18.37
2018-08-22T05:18:50.431Z,18.42
2018-08-22T05:21:20.440Z,18.48
2018-08-22T05:23:50.528Z,18.53
2018-08-22T05:26:20.431Z,18.61
2018-08-22T05:28:50.287Z,18.68
2018-08-22T05:31:20.368Z,18.75
2018-08-22T05:33:50.388Z,18.82
2018-08-22T05:36:20.255Z,18.90
2018-08-22T05:38:50.384Z,18.99
2018-08-22T05:41:20.076Z,19.06
2018-08-22T05:43:49.980Z,19.14
2018-08-22T05:46:19.936Z,19.23
2018-08-22T05:48:51.104Z,19.30
2018-08-22T05:51:20.951Z,19.38
2018-08-22T05:53:53.974Z,19.47
2018-08-22T05:56:24.030Z,19.55
2018-08-22T05:58:53.913Z,19.64
2018-08-22T06:01:23.814Z,19.72
2018-08-22T06:03:56.082Z,19.83
2018-08-22T06:06:26.073Z,19.92
2018-08-22T06:08:55.914Z,20.02
2018-08-22T06:11:26.007Z,20.13
2018-08-22T06:13:58.957Z,20.23
2018-08-22T06:16:35.981Z,20.33
2018-08-22T06:19:10.519Z,20.39
2018-08-22T06:21:43.555Z,20.52
2018-08-22T06:24:16.696Z,20.61
2018-08-22T06:26:50.795Z,20.72
2018-08-22T06:29:25.500Z,20.81
2018-08-22T06:31:59.283Z,20.89
2018-08-22T06:34:32.954Z,21.00
2018-08-22T06:37:06.698Z,21.13
2018-08-22T06:39:40.617Z,21.24
2018-08-22T06:42:14.136Z,21.34
2018-08-22T06:44:44.011Z,21.41
2018-08-22T06:47:13.811Z,21.50
2018-08-22T06:49:43.622Z,21.60
2018-08-22T06:52:13.739Z,21.70
2018-08-22T06:54:43.591Z,21.79
2018-08-22T06:57:13.516Z,21.88
2018-08-22T06:59:43.223Z,21.96
2018-08-22T07:02:12.902Z,22.06
2018-08-22T07:04:42.713Z,22.17
2018-08-22T07:07:12.559Z,22.27
2018-08-22T07:09:42.407Z,22.39
2018-08-22T07:12:12.220Z,22.52
2018-08-22T07:14:42.135Z,22.65
2018-08-22T07:17:13.039Z,22.77
2018-08-22T07:19:42.972Z,22.87
2018-08-22T07:22:12.748Z,23.00
2018-08-22T07:24:42.543Z,23.12
2018-08-22T07:27:12.212Z,23.21
2018-08-22T07:29:43.264Z,23.29
2018-08-22T07:32:13.276Z,23.41
2018-08-22T07:34:43.283Z,23.55
2018-08-22T07:37:13.103Z,23.68
2018-08-22T07:39:42.958Z,23.82
2018-08-22T07:42:12.975Z,23.93
2018-08-22T07:44:42.943Z,24.06
2018-08-22T07:47:12.818Z,24.22
2018-08-22T07:49:42.424Z,24.39
2018-08-22T07:52:12.282Z,24.50
2018-08-22T07:54:44.918Z,24.63
2018-08-22T07:57:16.465Z,24.74
2018-08-22T07:59:46.373Z,24.88
2018-08-22T08:02:17.551Z,25.01
2018-08-22T08:04:48.714Z,25.13
2018-08-22T08:07:18.810Z,25.27
2018-08-22T08:09:48.805Z,25.38
2018-08-22T08:12:20.723Z,25.50
2018-08-22T08:14:54.695Z,25.62
2018-08-22T08:17:24.524Z,25.78
2018-08-22T08:19:54.397Z,25.93
2018-08-22T08:22:24.215Z,25.98
2018-08-22T08:24:54.117Z,25.99
2018-08-22T08:27:24.627Z,26.04
2018-08-22T08:29:54.517Z,26.18
2018-08-22T08:32:24.354Z,26.32
2018-08-22T08:34:54.395Z,26.49
2018-08-22T08:37:24.300Z,26.72
2018-08-22T08:39:54.231Z,26.87
2018-08-22T08:42:24.199Z,26.98
2018-08-22T08:44:54.022Z,27.13
2018-08-22T08:47:24.822Z,27.29
2018-08-22T08:49:54.916Z,27.47
2018-08-22T08:52:25.083Z,27.57
2018-08-22T08:54:54.920Z,27.63
2018-08-22T08:57:25.496Z,27.70
2018-08-22T08:59:55.418Z,27.83
2018-08-22T09:02:25.177Z,27.92
2018-08-22T09:04:55.144Z,27.92
2018-08-22T09:07:24.873Z,27.93
2018-08-22T09:09:54.707Z,28.03
2018-08-22T09:12:24.496Z,28.14
2018-08-22T09:17:26.049Z,28.48
2018-08-22T09:19:55.901Z,28.63
2018-08-22T09:22:25.780Z,28.66
2018-08-22T09:24:55.582Z,28.71
2018-08-22T09:27:25.530Z,28.74
2018-08-22T09:29:55.335Z,28.80
2018-08-22T09:32:25.164Z,28.86
2018-08-22T09:34:54.937Z,28.92
2018-08-22T09:37:24.872Z,28.98
2018-08-22T09:40:07.290Z,29.09
2018-08-22T09:42:37.235Z,29.26
2018-08-22T09:45:06.943Z,29.37
2018-08-22T09:47:36.646Z,29.49
2018-08-22T09:50:06.930Z,29.70
2018-08-22T09:52:36.893Z,29.80
2018-08-22T09:55:07.519Z,29.85
2018-08-22T09:57:37.312Z,29.88
2018-08-22T10:00:12.125Z,29.99
2018-08-22T10:02:41.890Z,30.04
2018-08-22T10:05:11.717Z,30.13
2018-08-22T10:07:44.290Z,30.18
2018-08-22T10:10:14.078Z,30.24
2018-08-22T10:12:45.054Z,30.41
2018-08-22T10:15:14.851Z,30.63
2018-08-22T10:17:44.886Z,30.80
2018-08-22T10:20:15.652Z,30.96
2018-08-22T10:22:45.568Z,31.14
2018-08-22T10:25:15.655Z,31.29
2018-08-22T10:27:45.622Z,31.36
2018-08-22T10:30:15.283Z,31.42
2018-08-22T10:32:45.237Z,31.53
2018-08-22T10:35:15.094Z,31.53
2018-08-22T10:37:44.970Z,31.55
2018-08-22T10:40:14.842Z,31.46
2018-08-22T10:42:44.975Z,31.45
2018-08-22T10:45:14.830Z,31.51
2018-08-22T10:47:44.709Z,31.53
2018-08-22T10:50:14.957Z,31.53
2018-08-22T10:52:44.959Z,31.57
2018-08-22T10:55:14.655Z,31.70
2018-08-22T10:57:44.441Z,31.67
2018-08-22T11:00:14.583Z,31.66
2018-08-22T11:02:44.430Z,31.76
2018-08-22T11:05:14.436Z,31.94
2018-08-22T11:07:44.587Z,32.21
2018-08-22T11:10:14.459Z,32.54
2018-08-22T11:12:46.003Z,32.64
2018-08-22T11:15:15.799Z,32.61
2018-08-22T11:17:45.661Z,32.48
2018-08-22T11:20:15.452Z,32.47
2018-08-22T11:23:01.944Z,32.52
2018-08-22T11:25:48.203Z,32.59
2018-08-22T11:28:34.646Z,32.82
2018-08-22T11:31:21.496Z,32.99
2018-08-22T11:34:07.784Z,33.02
2018-08-22T11:36:36.811Z,33.09
2018-08-22T11:39:08.602Z,33.23
2018-08-22T11:41:38.444Z,33.31
2018-08-22T11:44:08.275Z,33.46
2018-08-22T11:46:38.187Z,33.63
2018-08-22T11:49:08.111Z,33.66
2018-08-22T11:51:38.176Z,33.57
2018-08-22T11:54:07.992Z,33.44
2018-08-22T11:56:38.784Z,33.51
2018-08-22T11:59:08.394Z,33.99
2018-08-22T12:01:38.395Z,34.85
2018-08-22T12:04:08.820Z,34.65
2018-08-22T12:06:38.639Z,34.53
2018-08-22T12:09:10.434Z,34.50
2018-08-22T12:11:40.289Z,34.76
2018-08-22T12:14:10.474Z,35.02
2018-08-22T12:16:40.694Z,35.04
2018-08-22T12:19:11.017Z,35.41
2018-08-22T12:21:41.502Z,35.85
2018-08-22T12:24:11.267Z,36.31
2018-08-22T12:26:41.114Z,36.81
2018-08-22T12:29:11.552Z,37.27
2018-08-22T12:31:41.294Z,37.22
2018-08-22T12:34:11.284Z,36.58
2018-08-22T12:36:41.217Z,36.20
2018-08-22T12:39:10.913Z,36.26
2018-08-22T12:41:40.687Z,36.63
2018-08-22T12:44:10.602Z,37.35
2018-08-22T12:46:40.445Z,37.95
2018-08-22T12:49:10.488Z,37.86
2018-08-22T12:51:40.178Z,37.53
2018-08-22T12:54:09.847Z,37.12
2018-08-22T12:56:39.509Z,36.83
2018-08-22T12:59:09.546Z,36.92
2018-08-22T13:01:39.436Z,37.44
2018-08-22T13:04:09.370Z,37.73
2018-08-22T13:06:41.510Z,37.20
2018-08-22T13:09:11.921Z,36.85
2018-08-22T13:11:42.053Z,36.55
2018-08-22T13:14:11.837Z,36.08
2018-08-22T13:16:41.551Z,36.03
2018-08-22T13:19:11.443Z,36.85
2018-08-22T13:21:41.341Z,37.41
2018-08-22T13:24:14.199Z,37.52
2018-08-22T13:26:43.922Z,37.37
2018-08-22T13:29:13.730Z,36.92
2018-08-22T13:31:43.587Z,36.51
2018-08-22T13:34:13.394Z,36.09
2018-08-22T13:36:43.168Z,35.73
2018-08-22T13:39:13.122Z,35.58
2018-08-22T13:41:43.115Z,35.88
2018-08-22T13:44:12.864Z,36.66
2018-08-22T13:46:42.597Z,37.12
2018-08-22T13:49:12.399Z,37.16
2018-08-22T13:51:42.298Z,37.05
2018-08-22T13:54:11.879Z,36.55
2018-08-22T13:56:41.582Z,36.00
2018-08-22T13:59:11.537Z,36.46
2018-08-22T14:01:41.277Z,36.47
2018-08-22T14:04:11.142Z,36.42
2018-08-22T14:06:41.200Z,36.03
2018-08-22T14:09:11.957Z,35.55
2018-08-22T14:11:42.034Z,35.14
2018-08-22T14:14:11.881Z,35.01
2018-08-22T14:16:41.762Z,35.00
2018-08-22T14:19:12.173Z,35.48
2018-08-22T14:21:42.270Z,36.69
2018-08-22T14:24:12.059Z,37.60
2018-08-22T14:26:41.929Z,38.07
2018-08-22T14:29:11.891Z,38.04
2018-08-22T14:31:42.073Z,37.66
2018-08-22T14:34:11.734Z,36.97
2018-08-22T14:36:41.609Z,37.04
2018-08-22T14:39:12.685Z,36.85
2018-08-22T14:41:42.955Z,36.81
2018-08-22T14:46:50.448Z,36.72
2018-08-22T14:49:20.958Z,36.52
2018-08-22T14:51:51.245Z,36.97
2018-08-22T14:54:22.028Z,37.76
2018-08-22T14:56:52.272Z,38.16
2018-08-22T14:59:22.335Z,38.59
2018-08-22T15:01:52.467Z,38.84
2018-08-22T15:04:22.758Z,38.83
2018-08-22T15:06:53.122Z,38.82
2018-08-22T15:09:23.380Z,38.94
2018-08-22T15:11:53.757Z,39.08
2018-08-22T15:14:24.065Z,39.09
2018-08-22T15:16:54.712Z,38.47
2018-08-22T15:19:25.221Z,37.83
2018-08-22T15:21:55.443Z,37.59
2018-08-22T15:24:25.627Z,37.99
2018-08-22T15:26:56.025Z,38.36
2018-08-22T15:29:27.706Z,38.53
2018-08-22T15:32:00.587Z,38.67
2018-08-22T15:35:02.299Z,38.44
2018-08-22T15:37:33.129Z,37.93
2018-08-22T15:40:03.142Z,37.72
2018-08-22T15:42:33.420Z,37.58
2018-08-22T15:45:03.652Z,37.19
2018-08-22T15:47:34.002Z,36.96
2018-08-22T15:50:04.672Z,36.83
2018-08-22T15:52:34.835Z,36.48
2018-08-22T15:55:13.017Z,36.29
2018-08-22T15:57:56.331Z,36.24
2018-08-22T16:00:39.831Z,36.30
2018-08-22T16:03:10.822Z,36.68
2018-08-22T16:05:41.880Z,36.87
2018-08-22T16:08:12.837Z,36.83
2018-08-22T16:10:42.935Z,36.57
2018-08-22T16:13:19.132Z,36.25
2018-08-22T16:15:50.730Z,35.98
2018-08-22T16:18:21.144Z,36.00
2018-08-22T16:20:56.595Z,36.17
2018-08-22T16:23:28.300Z,36.23
2018-08-22T16:25:59.823Z,36.39
2018-08-22T16:28:41.934Z,36.30
2018-08-22T16:31:12.112Z,36.18
2018-08-22T16:33:42.059Z,36.04
2018-08-22T16:36:16.257Z,35.92
2018-08-22T16:38:46.893Z,35.60
2018-08-22T16:41:18.501Z,34.86
2018-08-22T16:43:50.950Z,34.37
2018-08-22T16:46:20.990Z,34.09
2018-08-22T16:48:55.020Z,34.23
2018-08-22T16:51:25.382Z,34.67
2018-08-22T16:54:01.334Z,34.91
2018-08-22T16:56:33.533Z,34.81
2018-08-22T16:59:09.313Z,34.61
2018-08-22T17:01:41.738Z,34.58
2018-08-22T17:04:12.226Z,34.59
2018-08-22T17:06:42.376Z,34.51
2018-08-22T17:09:12.892Z,34.38
2018-08-22T17:11:43.175Z,34.38
2018-08-22T17:14:13.341Z,34.37
2018-08-22T17:16:43.481Z,34.16
2018-08-22T17:19:13.543Z,33.83
2018-08-22T17:21:43.719Z,33.68
2018-08-22T17:24:14.017Z,33.63
2018-08-22T17:26:44.315Z,33.60
2018-08-22T17:29:14.569Z,33.52
2018-08-22T17:31:50.404Z,33.38
2018-08-22T17:34:20.650Z,33.21
2018-08-22T17:37:04.832Z,33.15
2018-08-22T17:39:34.551Z,33.03
2018-08-22T17:42:04.625Z,32.94
2018-08-22T17:44:34.558Z,32.69
2018-08-22T17:47:04.368Z,32.45
2018-08-22T17:49:40.616Z,32.22
2018-08-22T17:52:11.720Z,31.97
2018-08-22T17:54:42.101Z,31.57
2018-08-22T17:57:21.498Z,31.06
2018-08-22T17:59:51.667Z,30.76
2018-08-22T18:02:21.391Z,30.59
2018-08-22T18:04:56.690Z,30.21
2018-08-22T18:07:26.595Z,29.79
2018-08-22T18:09:56.606Z,29.44
2018-08-22T18:12:27.854Z,29.16
2018-08-22T18:15:00.171Z,28.90
2018-08-22T18:17:30.218Z,28.61
2018-08-22T18:20:00.327Z,28.38
2018-08-22T18:25:11.825Z,27.85
2018-08-22T18:27:41.941Z,27.57
2018-08-22T18:30:12.954Z,27.38
2018-08-22T18:32:45.340Z,27.27
2018-08-22T18:35:15.335Z,27.17
2018-08-22T18:37:45.665Z,27.05
2018-08-22T18:40:29.389Z,26.87
2018-08-22T18:43:02.631Z,26.63
2018-08-22T18:45:32.845Z,26.45
2018-08-22T18:48:05.754Z,26.28
2018-08-22T18:50:35.846Z,26.11
2018-08-22T18:53:06.760Z,25.95
2018-08-22T18:55:36.878Z,25.83
2018-08-22T18:58:07.176Z,25.72
2018-08-22T19:00:38.163Z,25.63
2018-08-22T19:03:07.528Z,25.51
2018-08-22T19:05:37.886Z,25.42
2018-08-22T19:08:12.361Z,25.31
2018-08-22T19:10:44.074Z,25.23
2018-08-22T19:13:21.000Z,25.14
2018-08-22T19:15:54.511Z,25.04
2018-08-22T19:18:24.032Z,24.92
2018-08-22T19:20:58.171Z,24.84
2018-08-22T19:23:27.610Z,24.79
2018-08-22T19:25:57.735Z,24.74
2018-08-22T19:28:27.115Z,24.69
2018-08-22T19:30:56.668Z,24.64
2018-08-22T19:33:27.161Z,24.59
2018-08-22T19:35:56.760Z,24.54
2018-08-22T19:38:28.294Z,24.48
2018-08-22T19:40:58.904Z,24.45
2018-08-22T19:43:28.394Z,24.38
2018-08-22T19:45:58.298Z,24.32
2018-08-22T19:48:28.465Z,24.26
2018-08-22T19:50:58.376Z,24.20
2018-08-22T19:53:28.448Z,24.13
2018-08-22T19:55:58.303Z,24.09
2018-08-22T19:58:34.303Z,24.01
2018-08-22T20:01:04.329Z,23.94
2018-08-22T20:03:35.577Z,23.88
2018-08-22T20:06:06.921Z,23.82
2018-08-22T20:08:38.316Z,23.77
2018-08-22T20:11:09.028Z,23.72
2018-08-22T20:13:51.322Z,23.63
2018-08-22T20:16:22.708Z,23.58
2018-08-22T20:18:54.814Z,23.54
2018-08-22T20:21:29.124Z,23.60
2018-08-22T20:24:01.773Z,23.48
2018-08-22T20:26:32.902Z,23.44
2018-08-22T20:29:04.943Z,23.41
2018-08-22T20:31:37.017Z,23.34
2018-08-22T20:34:18.369Z,23.25
2018-08-22T20:36:51.026Z,23.15
2018-08-22T20:39:21.753Z,23.07
2018-08-22T20:41:56.428Z,22.97
2018-08-22T20:44:26.091Z,22.89
2018-08-22T20:46:55.973Z,22.78
2018-08-22T20:49:25.656Z,22.68
2018-08-22T20:51:55.404Z,22.56
2018-08-22T20:54:25.205Z,22.45
2018-08-22T20:57:01.146Z,22.36
2018-08-22T20:59:31.187Z,22.28
2018-08-22T21:02:05.165Z,22.17
2018-08-22T21:04:35.637Z,22.21
2018-08-22T21:07:05.696Z,22.14
2018-08-22T21:09:35.313Z,22.09
2018-08-22T21:12:11.038Z,22.04
2018-08-22T21:14:40.640Z,21.99
2018-08-22T21:17:10.386Z,21.96
2018-08-22T21:19:40.331Z,21.93
2018-08-22T21:22:31.339Z,21.91
2018-08-22T21:25:01.737Z,21.85
2018-08-22T21:27:31.943Z,21.80
2018-08-22T21:30:02.262Z,21.73
2018-08-22T21:32:38.407Z,21.67
2018-08-22T21:35:15.193Z,21.59
2018-08-22T21:37:45.049Z,21.49
2018-08-22T21:40:14.918Z,21.40
2018-08-22T21:42:44.980Z,21.35
2018-08-22T21:45:15.191Z,21.30
2018-08-22T21:47:45.118Z,21.28
2018-08-22T21:50:15.311Z,21.24
2018-08-22T21:52:55.382Z,21.21
2018-08-22T21:55:30.285Z,21.18
2018-08-22T21:58:00.128Z,21.15
2018-08-22T22:00:30.353Z,21.11
2018-08-22T22:03:00.277Z,21.08
2018-08-22T22:05:44.214Z,21.03
2018-08-22T22:08:14.183Z,20.99
2018-08-22T22:10:44.232Z,20.95
2018-08-22T22:13:14.264Z,20.89
2018-08-22T22:15:45.538Z,20.85
2018-08-22T22:18:15.511Z,20.81
2018-08-22T22:20:50.670Z,20.79
2018-08-22T22:23:20.107Z,20.76
2018-08-22T22:25:49.999Z,20.71
2018-08-22T22:28:21.769Z,20.68
2018-08-22T22:30:51.277Z,20.66
2018-08-22T22:33:20.736Z,20.71
2018-08-22T22:35:50.129Z,20.66
2018-08-22T22:38:19.691Z,20.62
2018-08-22T22:40:49.115Z,20.57
2018-08-22T22:43:18.511Z,20.52
2018-08-22T22:45:47.905Z,20.49
2018-08-22T22:48:33.607Z,20.45
2018-08-22T22:51:03.031Z,20.40
2018-08-22T22:53:32.499Z,20.38
2018-08-22T22:56:02.402Z,20.35
2018-08-22T22:58:32.745Z,20.33
2018-08-22T23:01:02.355Z,20.31
2018-08-22T23:03:31.749Z,20.29
2018-08-22T23:06:01.165Z,20.28
2018-08-22T23:08:30.550Z,20.25
2018-08-22T23:11:00.357Z,20.22
2018-08-22T23:13:30.158Z,20.27
2018-08-22T23:15:59.569Z,20.26
2018-08-22T23:18:36.062Z,20.24
2018-08-22T23:21:14.598Z,20.20
2018-08-22T23:23:51.194Z,20.16
2018-08-22T23:26:26.652Z,20.11
2018-08-22T23:29:04.479Z,20.07
2018-08-22T23:31:42.507Z,20.03
2018-08-22T23:34:17.298Z,19.98
2018-08-22T23:36:54.418Z,19.94
2018-08-22T23:39:32.673Z,19.90
2018-08-22T23:42:19.222Z,19.86
2018-08-22T23:44:57.574Z,19.83
2018-08-22T23:47:33.702Z,19.78
2018-08-22T23:50:11.586Z,19.74
2018-08-22T23:52:53.702Z,19.69
2018-08-22T23:55:29.632Z,19.65
2018-08-22T23:58:05.861Z,19.62
